sensor_id;sensor_type;location;lat;lon;timestamp;temperature;humidity
51793;DHT22;37850;53.178;6.376;2023-07-31T00:02:20;17.10;99.90
51793;DHT22;37850;53.178;6.376;2023-07-31T00:04:46;17.00;99.90
51793;DHT22;37850;53.178;6.376;2023-07-31T00:07:11;17.00;99.90
51793;DHT22;37850;53.178;6.376;2023-07-31T00:09:37;17.00;99.90
51793;DHT22;37850;53.178;6.376;2023-07-31T00:12:03;17.00;99.90
51793;DHT22;37850;53.178;6.376;2023-07-31T00:14:29;17.00;99.90
51793;DHT22;37850;53.178;6.376;2023-07-31T00:16:55;17.00;99.90
51793;DHT22;37850;53.178;6.376;2023-07-31T00:19:20;16.90;99.90
51793;DHT22;37850;53.178;6.376;2023-07-31T00:21:46;16.90;99.90
51793;DHT22;37850;53.178;6.376;2023-07-31T00:24:12;16.90;99.90
51793;DHT22;37850;53.178;6.376;2023-07-31T00:26:38;16.90;99.90
51793;DHT22;37850;53.178;6.376;2023-07-31T00:29:03;16.80;99.90
51793;DHT22;37850;53.178;6.376;2023-07-31T00:31:29;16.80;99.90
51793;DHT22;37850;53.178;6.376;2023-07-31T00:33:55;16.80;99.90
51793;DHT22;37850;53.178;6.376;2023-07-31T00:36:20;16.80;99.90
51793;DHT22;37850;53.178;6.376;2023-07-31T00:38:46;16.80;99.90
51793;DHT22;37850;53.178;6.376;2023-07-31T00:41:12;16.80;99.90
51793;DHT22;37850;53.178;6.376;2023-07-31T00:43:37;16.70;99.90
51793;DHT22;37850;53.178;6.376;2023-07-31T00:46:03;16.70;99.90
51793;DHT22;37850;53.178;6.376;2023-07-31T00:48:30;16.80;99.90
51793;DHT22;37850;53.178;6.376;2023-07-31T00:50:56;16.70;99.90
51793;DHT22;37850;53.178;6.376;2023-07-31T00:53:21;16.70;99.90
51793;DHT22;37850;53.178;6.376;2023-07-31T00:55:47;16.70;99.90
51793;DHT22;37850;53.178;6.376;2023-07-31T00:58:13;16.70;99.90
51793;DHT22;37850;53.178;6.376;2023-07-31T01:00:39;16.60;99.90
51793;DHT22;37850;53.178;6.376;2023-07-31T01:03:05;16.60;99.90
51793;DHT22;37850;53.178;6.376;2023-07-31T01:05:46;16.70;99.90
51793;DHT22;37850;53.178;6.376;2023-07-31T01:08:24;16.70;99.90
51793;DHT22;37850;53.178;6.376;2023-07-31T01:11:02;16.70;99.90
51793;DHT22;37850;53.178;6.376;2023-07-31T01:13:31;16.70;99.90
51793;DHT22;37850;53.178;6.376;2023-07-31T01:15:57;16.70;99.90
51793;DHT22;37850;53.178;6.376;2023-07-31T01:18:23;16.70;99.90
51793;DHT22;37850;53.178;6.376;2023-07-31T01:20:54;16.60;99.90
51793;DHT22;37850;53.178;6.376;2023-07-31T01:28:23;16.60;99.90
51793;DHT22;37850;53.178;6.376;2023-07-31T01:30:50;16.60;99.90
51793;DHT22;37850;53.178;6.376;2023-07-31T01:33:17;16.60;99.90
51793;DHT22;37850;53.178;6.376;2023-07-31T01:35:48;16.50;99.90
51793;DHT22;37850;53.178;6.376;2023-07-31T01:38:15;16.60;99.90
51793;DHT22;37850;53.178;6.376;2023-07-31T01:40:43;16.50;99.90
51793;DHT22;37850;53.178;6.376;2023-07-31T01:43:09;16.50;99.90
51793;DHT22;37850;53.178;6.376;2023-07-31T01:45:35;16.50;99.90
51793;DHT22;37850;53.178;6.376;2023-07-31T01:48:01;16.50;99.90
51793;DHT22;37850;53.178;6.376;2023-07-31T01:50:27;16.50;99.90
51793;DHT22;37850;53.178;6.376;2023-07-31T01:52:52;16.50;99.90
51793;DHT22;37850;53.178;6.376;2023-07-31T01:55:18;16.50;99.90
51793;DHT22;37850;53.178;6.376;2023-07-31T01:57:44;16.50;99.90
51793;DHT22;37850;53.178;6.376;2023-07-31T02:00:10;16.50;99.90
51793;DHT22;37850;53.178;6.376;2023-07-31T02:02:35;16.50;99.90
51793;DHT22;37850;53.178;6.376;2023-07-31T02:05:01;16.50;99.90
51793;DHT22;37850;53.178;6.376;2023-07-31T02:07:27;16.50;99.90
51793;DHT22;37850;53.178;6.376;2023-07-31T02:09:53;16.50;99.90
51793;DHT22;37850;53.178;6.376;2023-07-31T02:12:19;16.50;99.90
51793;DHT22;37850;53.178;6.376;2023-07-31T02:14:45;16.50;99.90
51793;DHT22;37850;53.178;6.376;2023-07-31T02:17:10;16.50;99.90
51793;DHT22;37850;53.178;6.376;2023-07-31T02:19:36;16.50;99.90
51793;DHT22;37850;53.178;6.376;2023-07-31T02:22:02;16.40;99.90
51793;DHT22;37850;53.178;6.376;2023-07-31T02:24:28;16.40;99.90
51793;DHT22;37850;53.178;6.376;2023-07-31T02:26:53;16.50;99.90
51793;DHT22;37850;53.178;6.376;2023-07-31T02:29:19;16.50;99.90
51793;DHT22;37850;53.178;6.376;2023-07-31T02:31:45;16.40;99.90
51793;DHT22;37850;53.178;6.376;2023-07-31T02:34:11;16.50;99.90
51793;DHT22;37850;53.178;6.376;2023-07-31T02:36:36;16.50;99.90
51793;DHT22;37850;53.178;6.376;2023-07-31T02:39:02;16.40;99.90
51793;DHT22;37850;53.178;6.376;2023-07-31T02:41:28;16.40;99.90
51793;DHT22;37850;53.178;6.376;2023-07-31T02:43:54;16.50;99.90
51793;DHT22;37850;53.178;6.376;2023-07-31T02:46:20;16.40;99.90
51793;DHT22;37850;53.178;6.376;2023-07-31T02:48:47;16.40;99.90
51793;DHT22;37850;53.178;6.376;2023-07-31T02:51:13;16.40;99.90
51793;DHT22;37850;53.178;6.376;2023-07-31T02:53:39;16.40;99.90
51793;DHT22;37850;53.178;6.376;2023-07-31T02:56:05;16.40;99.90
51793;DHT22;37850;53.178;6.376;2023-07-31T02:58:30;16.50;99.90
51793;DHT22;37850;53.178;6.376;2023-07-31T03:00:58;16.50;99.90
51793;DHT22;37850;53.178;6.376;2023-07-31T03:03:24;16.50;99.90
51793;DHT22;37850;53.178;6.376;2023-07-31T03:05:50;16.40;99.90
51793;DHT22;37850;53.178;6.376;2023-07-31T03:08:15;16.40;99.90
51793;DHT22;37850;53.178;6.376;2023-07-31T03:10:41;16.40;99.90
51793;DHT22;37850;53.178;6.376;2023-07-31T03:13:07;16.40;99.90
51793;DHT22;37850;53.178;6.376;2023-07-31T03:15:33;16.40;99.90
51793;DHT22;37850;53.178;6.376;2023-07-31T03:17:59;16.40;99.90
51793;DHT22;37850;53.178;6.376;2023-07-31T03:20:24;16.40;99.90
51793;DHT22;37850;53.178;6.376;2023-07-31T03:22:50;16.40;99.90
51793;DHT22;37850;53.178;6.376;2023-07-31T03:25:16;16.40;99.90
51793;DHT22;37850;53.178;6.376;2023-07-31T03:27:41;16.40;99.90
51793;DHT22;37850;53.178;6.376;2023-07-31T03:30:07;16.40;99.90
51793;DHT22;37850;53.178;6.376;2023-07-31T03:32:33;16.40;99.90
51793;DHT22;37850;53.178;6.376;2023-07-31T03:34:59;16.40;99.90
51793;DHT22;37850;53.178;6.376;2023-07-31T03:37:25;16.40;99.90
51793;DHT22;37850;53.178;6.376;2023-07-31T03:39:52;16.40;99.90
51793;DHT22;37850;53.178;6.376;2023-07-31T03:42:17;16.40;99.90
51793;DHT22;37850;53.178;6.376;2023-07-31T03:44:43;16.40;99.90
51793;DHT22;37850;53.178;6.376;2023-07-31T03:47:09;16.40;99.90
51793;DHT22;37850;53.178;6.376;2023-07-31T03:49:34;16.40;99.90
51793;DHT22;37850;53.178;6.376;2023-07-31T03:52:00;16.30;99.90
51793;DHT22;37850;53.178;6.376;2023-07-31T03:54:26;16.40;99.90
51793;DHT22;37850;53.178;6.376;2023-07-31T03:56:52;16.40;99.90
51793;DHT22;37850;53.178;6.376;2023-07-31T03:59:17;16.40;99.90
51793;DHT22;37850;53.178;6.376;2023-07-31T04:01:43;16.30;99.90
51793;DHT22;37850;53.178;6.376;2023-07-31T04:04:09;16.30;99.90
51793;DHT22;37850;53.178;6.376;2023-07-31T04:06:34;16.40;99.90
51793;DHT22;37850;53.178;6.376;2023-07-31T04:09:00;16.30;99.90
51793;DHT22;37850;53.178;6.376;2023-07-31T04:11:26;16.30;99.90
51793;DHT22;37850;53.178;6.376;2023-07-31T04:13:52;16.30;99.90
51793;DHT22;37850;53.178;6.376;2023-07-31T04:16:17;16.30;99.90
51793;DHT22;37850;53.178;6.376;2023-07-31T04:18:43;16.10;99.90
51793;DHT22;37850;53.178;6.376;2023-07-31T04:21:09;16.30;99.90
51793;DHT22;37850;53.178;6.376;2023-07-31T04:23:35;16.30;99.90
51793;DHT22;37850;53.178;6.376;2023-07-31T04:26:01;16.30;99.90
51793;DHT22;37850;53.178;6.376;2023-07-31T04:28:27;16.30;99.90
51793;DHT22;37850;53.178;6.376;2023-07-31T04:30:52;16.30;99.90
51793;DHT22;37850;53.178;6.376;2023-07-31T04:33:19;16.30;99.90
51793;DHT22;37850;53.178;6.376;2023-07-31T04:35:53;16.30;99.90
51793;DHT22;37850;53.178;6.376;2023-07-31T04:38:19;16.30;99.90
51793;DHT22;37850;53.178;6.376;2023-07-31T04:40:46;16.30;99.90
51793;DHT22;37850;53.178;6.376;2023-07-31T04:43:12;16.30;99.90
51793;DHT22;37850;53.178;6.376;2023-07-31T04:45:37;16.30;99.90
51793;DHT22;37850;53.178;6.376;2023-07-31T04:48:03;16.30;99.90
51793;DHT22;37850;53.178;6.376;2023-07-31T04:50:29;16.30;99.90
51793;DHT22;37850;53.178;6.376;2023-07-31T04:52:56;16.30;99.90
51793;DHT22;37850;53.178;6.376;2023-07-31T04:55:22;16.30;99.90
51793;DHT22;37850;53.178;6.376;2023-07-31T04:57:47;16.30;99.90
51793;DHT22;37850;53.178;6.376;2023-07-31T05:00:13;16.30;99.90
51793;DHT22;37850;53.178;6.376;2023-07-31T05:02:39;16.30;99.90
51793;DHT22;37850;53.178;6.376;2023-07-31T05:05:05;16.30;99.90
51793;DHT22;37850;53.178;6.376;2023-07-31T05:07:31;16.30;99.90
51793;DHT22;37850;53.178;6.376;2023-07-31T05:09:57;16.30;99.90
51793;DHT22;37850;53.178;6.376;2023-07-31T05:12:22;16.30;99.90
51793;DHT22;37850;53.178;6.376;2023-07-31T05:14:48;16.30;99.90
51793;DHT22;37850;53.178;6.376;2023-07-31T05:17:14;16.30;99.90
51793;DHT22;37850;53.178;6.376;2023-07-31T05:19:39;16.30;99.90
51793;DHT22;37850;53.178;6.376;2023-07-31T05:22:05;16.30;99.90
51793;DHT22;37850;53.178;6.376;2023-07-31T05:24:31;16.30;99.90
51793;DHT22;37850;53.178;6.376;2023-07-31T05:26:57;16.30;99.90
51793;DHT22;37850;53.178;6.376;2023-07-31T05:29:23;16.30;99.90
51793;DHT22;37850;53.178;6.376;2023-07-31T05:31:49;16.30;99.90
51793;DHT22;37850;53.178;6.376;2023-07-31T05:34:14;16.30;99.90
51793;DHT22;37850;53.178;6.376;2023-07-31T05:36:40;16.30;99.90
51793;DHT22;37850;53.178;6.376;2023-07-31T05:39:06;16.30;99.90
51793;DHT22;37850;53.178;6.376;2023-07-31T05:41:35;16.30;99.90
51793;DHT22;37850;53.178;6.376;2023-07-31T05:44:01;16.30;99.90
51793;DHT22;37850;53.178;6.376;2023-07-31T05:46:26;16.30;99.90
51793;DHT22;37850;53.178;6.376;2023-07-31T05:48:52;16.30;99.90
51793;DHT22;37850;53.178;6.376;2023-07-31T05:51:18;16.30;99.90
51793;DHT22;37850;53.178;6.376;2023-07-31T05:53:43;16.30;99.90
51793;DHT22;37850;53.178;6.376;2023-07-31T05:56:09;16.30;99.90
51793;DHT22;37850;53.178;6.376;2023-07-31T05:58:35;16.40;99.90
51793;DHT22;37850;53.178;6.376;2023-07-31T06:01:01;16.40;99.90
51793;DHT22;37850;53.178;6.376;2023-07-31T06:03:26;16.40;99.90
51793;DHT22;37850;53.178;6.376;2023-07-31T06:05:52;16.40;99.90
51793;DHT22;37850;53.178;6.376;2023-07-31T06:08:18;16.40;99.90
51793;DHT22;37850;53.178;6.376;2023-07-31T06:10:43;16.50;99.90
51793;DHT22;37850;53.178;6.376;2023-07-31T06:13:09;16.50;99.90
51793;DHT22;37850;53.178;6.376;2023-07-31T06:15:35;16.50;99.90
51793;DHT22;37850;53.178;6.376;2023-07-31T06:18:01;16.50;99.90
51793;DHT22;37850;53.178;6.376;2023-07-31T06:20:28;16.50;99.90
51793;DHT22;37850;53.178;6.376;2023-07-31T06:22:53;16.50;99.90
51793;DHT22;37850;53.178;6.376;2023-07-31T06:25:19;16.50;99.90
51793;DHT22;37850;53.178;6.376;2023-07-31T06:27:45;16.60;99.90
51793;DHT22;37850;53.178;6.376;2023-07-31T06:30:11;16.60;99.90
51793;DHT22;37850;53.178;6.376;2023-07-31T06:32:37;16.60;99.90
51793;DHT22;37850;53.178;6.376;2023-07-31T06:35:03;16.70;99.90
51793;DHT22;37850;53.178;6.376;2023-07-31T06:37:29;16.70;99.90
51793;DHT22;37850;53.178;6.376;2023-07-31T06:39:54;16.70;99.90
51793;DHT22;37850;53.178;6.376;2023-07-31T06:42:20;16.70;99.90
51793;DHT22;37850;53.178;6.376;2023-07-31T06:44:46;16.80;99.90
51793;DHT22;37850;53.178;6.376;2023-07-31T06:47:12;16.80;99.90
51793;DHT22;37850;53.178;6.376;2023-07-31T06:49:38;16.90;99.90
51793;DHT22;37850;53.178;6.376;2023-07-31T06:52:04;17.00;99.90
51793;DHT22;37850;53.178;6.376;2023-07-31T06:54:29;17.00;99.90
51793;DHT22;37850;53.178;6.376;2023-07-31T06:56:55;17.00;99.90
51793;DHT22;37850;53.178;6.376;2023-07-31T06:59:21;17.10;99.90
51793;DHT22;37850;53.178;6.376;2023-07-31T07:01:46;17.10;99.90
51793;DHT22;37850;53.178;6.376;2023-07-31T07:04:13;17.10;99.90
51793;DHT22;37850;53.178;6.376;2023-07-31T07:06:39;17.10;99.90
51793;DHT22;37850;53.178;6.376;2023-07-31T07:09:04;17.10;99.90
51793;DHT22;37850;53.178;6.376;2023-07-31T07:11:31;17.10;99.90
51793;DHT22;37850;53.178;6.376;2023-07-31T07:13:57;17.20;99.90
51793;DHT22;37850;53.178;6.376;2023-07-31T07:16:22;17.20;99.90
51793;DHT22;37850;53.178;6.376;2023-07-31T07:18:49;17.20;99.90
51793;DHT22;37850;53.178;6.376;2023-07-31T07:21:15;17.20;99.90
51793;DHT22;37850;53.178;6.376;2023-07-31T07:23:42;17.20;99.90
51793;DHT22;37850;53.178;6.376;2023-07-31T07:26:08;17.20;99.90
51793;DHT22;37850;53.178;6.376;2023-07-31T07:28:33;17.20;99.90
51793;DHT22;37850;53.178;6.376;2023-07-31T07:30:59;17.20;99.90
51793;DHT22;37850;53.178;6.376;2023-07-31T07:33:25;17.20;99.90
51793;DHT22;37850;53.178;6.376;2023-07-31T07:35:51;17.20;99.90
51793;DHT22;37850;53.178;6.376;2023-07-31T07:38:16;17.20;99.90
51793;DHT22;37850;53.178;6.376;2023-07-31T07:40:42;17.30;99.90
51793;DHT22;37850;53.178;6.376;2023-07-31T07:43:08;17.40;99.90
51793;DHT22;37850;53.178;6.376;2023-07-31T07:45:34;17.30;99.90
51793;DHT22;37850;53.178;6.376;2023-07-31T07:47:59;17.30;99.90
51793;DHT22;37850;53.178;6.376;2023-07-31T07:50:25;17.30;99.90
51793;DHT22;37850;53.178;6.376;2023-07-31T07:52:51;17.30;99.90
51793;DHT22;37850;53.178;6.376;2023-07-31T07:55:17;17.30;99.90
51793;DHT22;37850;53.178;6.376;2023-07-31T07:57:42;17.30;99.90
51793;DHT22;37850;53.178;6.376;2023-07-31T08:00:10;17.30;99.90
51793;DHT22;37850;53.178;6.376;2023-07-31T08:02:36;17.30;99.90
51793;DHT22;37850;53.178;6.376;2023-07-31T08:05:01;17.30;99.90
51793;DHT22;37850;53.178;6.376;2023-07-31T08:07:27;17.30;99.90
51793;DHT22;37850;53.178;6.376;2023-07-31T08:09:53;17.20;99.90
51793;DHT22;37850;53.178;6.376;2023-07-31T08:12:19;17.20;99.90
51793;DHT22;37850;53.178;6.376;2023-07-31T08:14:44;17.20;99.90
51793;DHT22;37850;53.178;6.376;2023-07-31T08:17:10;17.20;99.90
51793;DHT22;37850;53.178;6.376;2023-07-31T08:19:36;17.20;99.90
51793;DHT22;37850;53.178;6.376;2023-07-31T08:22:01;17.30;99.90
51793;DHT22;37850;53.178;6.376;2023-07-31T08:24:27;17.30;99.90
51793;DHT22;37850;53.178;6.376;2023-07-31T08:26:53;17.30;99.90
51793;DHT22;37850;53.178;6.376;2023-07-31T08:29:19;17.30;99.90
51793;DHT22;37850;53.178;6.376;2023-07-31T08:31:45;17.40;99.90
51793;DHT22;37850;53.178;6.376;2023-07-31T08:34:10;17.40;99.90
51793;DHT22;37850;53.178;6.376;2023-07-31T08:36:36;17.40;99.90
51793;DHT22;37850;53.178;6.376;2023-07-31T08:39:02;17.50;99.90
51793;DHT22;37850;53.178;6.376;2023-07-31T08:41:29;17.50;99.90
51793;DHT22;37850;53.178;6.376;2023-07-31T08:43:55;17.50;99.90
51793;DHT22;37850;53.178;6.376;2023-07-31T08:46:22;17.50;99.90
51793;DHT22;37850;53.178;6.376;2023-07-31T08:48:48;17.50;99.90
51793;DHT22;37850;53.178;6.376;2023-07-31T08:51:15;17.50;99.90
51793;DHT22;37850;53.178;6.376;2023-07-31T08:53:41;17.50;99.90
51793;DHT22;37850;53.178;6.376;2023-07-31T08:56:07;17.50;99.90
51793;DHT22;37850;53.178;6.376;2023-07-31T08:58:35;17.50;99.90
51793;DHT22;37850;53.178;6.376;2023-07-31T09:01:04;17.60;99.90
51793;DHT22;37850;53.178;6.376;2023-07-31T09:03:33;17.60;99.90
51793;DHT22;37850;53.178;6.376;2023-07-31T09:06:02;17.60;99.90
51793;DHT22;37850;53.178;6.376;2023-07-31T09:08:31;17.60;99.90
51793;DHT22;37850;53.178;6.376;2023-07-31T09:11:00;17.60;99.90
51793;DHT22;37850;53.178;6.376;2023-07-31T09:13:30;17.70;99.90
51793;DHT22;37850;53.178;6.376;2023-07-31T09:15:56;17.70;99.90
51793;DHT22;37850;53.178;6.376;2023-07-31T09:18:22;17.70;99.90
51793;DHT22;37850;53.178;6.376;2023-07-31T09:21:01;17.70;99.90
51793;DHT22;37850;53.178;6.376;2023-07-31T09:23:43;17.70;99.90
51793;DHT22;37850;53.178;6.376;2023-07-31T09:26:09;17.70;99.90
51793;DHT22;37850;53.178;6.376;2023-07-31T09:28:35;17.80;99.90
51793;DHT22;37850;53.178;6.376;2023-07-31T09:31:01;17.80;99.90
51793;DHT22;37850;53.178;6.376;2023-07-31T09:33:26;17.80;99.90
51793;DHT22;37850;53.178;6.376;2023-07-31T09:35:52;17.80;99.90
51793;DHT22;37850;53.178;6.376;2023-07-31T09:38:18;17.80;99.90
51793;DHT22;37850;53.178;6.376;2023-07-31T09:40:48;17.80;99.90
51793;DHT22;37850;53.178;6.376;2023-07-31T09:43:18;17.80;99.90
51793;DHT22;37850;53.178;6.376;2023-07-31T09:45:45;17.80;99.90
51793;DHT22;37850;53.178;6.376;2023-07-31T09:48:13;17.90;99.90
51793;DHT22;37850;53.178;6.376;2023-07-31T09:50:42;17.90;99.90
51793;DHT22;37850;53.178;6.376;2023-07-31T09:53:08;17.90;99.90
51793;DHT22;37850;53.178;6.376;2023-07-31T09:55:35;17.90;99.90
51793;DHT22;37850;53.178;6.376;2023-07-31T09:58:09;17.90;99.90
51793;DHT22;37850;53.178;6.376;2023-07-31T10:00:36;17.90;99.90
51793;DHT22;37850;53.178;6.376;2023-07-31T10:03:04;18.00;99.90
51793;DHT22;37850;53.178;6.376;2023-07-31T10:05:34;18.00;99.90
51793;DHT22;37850;53.178;6.376;2023-07-31T10:08:00;18.00;99.90
51793;DHT22;37850;53.178;6.376;2023-07-31T10:10:27;18.10;99.90
51793;DHT22;37850;53.178;6.376;2023-07-31T10:12:54;18.10;99.90
51793;DHT22;37850;53.178;6.376;2023-07-31T10:15:21;18.10;99.90
51793;DHT22;37850;53.178;6.376;2023-07-31T10:17:49;18.10;99.90
51793;DHT22;37850;53.178;6.376;2023-07-31T10:20:15;18.20;99.90
51793;DHT22;37850;53.178;6.376;2023-07-31T10:22:44;18.20;99.90
51793;DHT22;37850;53.178;6.376;2023-07-31T10:25:15;18.20;99.90
51793;DHT22;37850;53.178;6.376;2023-07-31T10:27:42;18.30;99.90
51793;DHT22;37850;53.178;6.376;2023-07-31T10:30:12;18.40;99.90
51793;DHT22;37850;53.178;6.376;2023-07-31T10:32:40;18.40;99.90
51793;DHT22;37850;53.178;6.376;2023-07-31T10:35:07;18.40;99.90
51793;DHT22;37850;53.178;6.376;2023-07-31T10:37:38;18.40;99.90
51793;DHT22;37850;53.178;6.376;2023-07-31T10:40:17;18.40;99.90
51793;DHT22;37850;53.178;6.376;2023-07-31T10:45:36;18.60;99.90
51793;DHT22;37850;53.178;6.376;2023-07-31T10:48:07;18.70;99.90
51793;DHT22;37850;53.178;6.376;2023-07-31T10:50:37;18.80;99.90
51793;DHT22;37850;53.178;6.376;2023-07-31T10:53:03;19.00;99.90
51793;DHT22;37850;53.178;6.376;2023-07-31T10:55:33;19.00;99.90
51793;DHT22;37850;53.178;6.376;2023-07-31T11:00:34;19.20;99.90
51793;DHT22;37850;53.178;6.376;2023-07-31T11:03:16;19.20;99.90
51793;DHT22;37850;53.178;6.376;2023-07-31T11:08:13;19.20;99.90
51793;DHT22;37850;53.178;6.376;2023-07-31T11:10:39;19.20;99.90
51793;DHT22;37850;53.178;6.376;2023-07-31T11:13:05;19.20;99.90
51793;DHT22;37850;53.178;6.376;2023-07-31T11:15:31;19.20;99.90
51793;DHT22;37850;53.178;6.376;2023-07-31T11:17:57;19.20;99.90
51793;DHT22;37850;53.178;6.376;2023-07-31T11:20:25;19.20;99.90
51793;DHT22;37850;53.178;6.376;2023-07-31T11:22:51;19.30;99.90
51793;DHT22;37850;53.178;6.376;2023-07-31T11:25:18;19.30;99.90
51793;DHT22;37850;53.178;6.376;2023-07-31T11:27:43;19.30;99.90
51793;DHT22;37850;53.178;6.376;2023-07-31T11:30:10;19.30;99.90
51793;DHT22;37850;53.178;6.376;2023-07-31T11:32:37;19.30;99.90
51793;DHT22;37850;53.178;6.376;2023-07-31T11:35:03;19.30;99.90
51793;DHT22;37850;53.178;6.376;2023-07-31T11:37:41;19.20;99.90
51793;DHT22;37850;53.178;6.376;2023-07-31T11:40:08;19.20;99.90
51793;DHT22;37850;53.178;6.376;2023-07-31T11:42:37;19.20;99.90
51793;DHT22;37850;53.178;6.376;2023-07-31T11:45:04;19.20;99.90
51793;DHT22;37850;53.178;6.376;2023-07-31T11:47:32;19.20;99.90
51793;DHT22;37850;53.178;6.376;2023-07-31T11:50:00;19.20;99.90
51793;DHT22;37850;53.178;6.376;2023-07-31T11:52:28;19.20;99.90
51793;DHT22;37850;53.178;6.376;2023-07-31T11:54:55;19.20;99.90
51793;DHT22;37850;53.178;6.376;2023-07-31T11:57:21;19.20;99.90
51793;DHT22;37850;53.178;6.376;2023-07-31T11:59:48;19.20;99.90
51793;DHT22;37850;53.178;6.376;2023-07-31T12:02:14;19.20;99.90
51793;DHT22;37850;53.178;6.376;2023-07-31T12:04:41;19.30;99.90
51793;DHT22;37850;53.178;6.376;2023-07-31T12:07:06;19.30;99.90
51793;DHT22;37850;53.178;6.376;2023-07-31T12:09:32;19.20;99.90
51793;DHT22;37850;53.178;6.376;2023-07-31T12:11:58;19.30;99.90
51793;DHT22;37850;53.178;6.376;2023-07-31T12:14:28;19.30;99.90
51793;DHT22;37850;53.178;6.376;2023-07-31T12:17:06;19.30;99.90
51793;DHT22;37850;53.178;6.376;2023-07-31T12:19:33;19.30;99.90
51793;DHT22;37850;53.178;6.376;2023-07-31T12:22:00;19.30;99.90
51793;DHT22;37850;53.178;6.376;2023-07-31T12:24:26;19.30;99.90
51793;DHT22;37850;53.178;6.376;2023-07-31T12:26:52;19.30;99.90
51793;DHT22;37850;53.178;6.376;2023-07-31T12:29:18;19.30;99.90
51793;DHT22;37850;53.178;6.376;2023-07-31T12:31:44;19.40;99.90
51793;DHT22;37850;53.178;6.376;2023-07-31T12:34:17;19.40;99.90
51793;DHT22;37850;53.178;6.376;2023-07-31T12:36:43;19.40;99.90
51793;DHT22;37850;53.178;6.376;2023-07-31T12:39:10;19.40;99.90
51793;DHT22;37850;53.178;6.376;2023-07-31T12:41:36;19.50;99.90
51793;DHT22;37850;53.178;6.376;2023-07-31T12:44:02;19.50;99.90
51793;DHT22;37850;53.178;6.376;2023-07-31T12:46:28;19.50;99.90
51793;DHT22;37850;53.178;6.376;2023-07-31T12:48:54;19.50;99.90
51793;DHT22;37850;53.178;6.376;2023-07-31T12:51:20;19.50;99.90
51793;DHT22;37850;53.178;6.376;2023-07-31T12:53:46;19.50;99.90
51793;DHT22;37850;53.178;6.376;2023-07-31T12:56:12;19.40;99.90
51793;DHT22;37850;53.178;6.376;2023-07-31T12:58:38;19.40;99.90
51793;DHT22;37850;53.178;6.376;2023-07-31T13:01:03;19.40;99.90
51793;DHT22;37850;53.178;6.376;2023-07-31T13:03:29;19.40;99.90
51793;DHT22;37850;53.178;6.376;2023-07-31T13:05:55;19.40;99.90
51793;DHT22;37850;53.178;6.376;2023-07-31T13:08:23;19.40;99.90
51793;DHT22;37850;53.178;6.376;2023-07-31T13:10:49;19.50;99.90
51793;DHT22;37850;53.178;6.376;2023-07-31T13:13:15;19.40;99.90
51793;DHT22;37850;53.178;6.376;2023-07-31T13:15:41;19.40;99.90
51793;DHT22;37850;53.178;6.376;2023-07-31T13:18:06;19.40;99.90
51793;DHT22;37850;53.178;6.376;2023-07-31T13:20:32;19.40;99.90
51793;DHT22;37850;53.178;6.376;2023-07-31T13:22:58;19.40;99.90
51793;DHT22;37850;53.178;6.376;2023-07-31T13:25:23;19.40;99.90
51793;DHT22;37850;53.178;6.376;2023-07-31T13:27:49;19.40;99.90
51793;DHT22;37850;53.178;6.376;2023-07-31T13:30:15;19.40;99.90
51793;DHT22;37850;53.178;6.376;2023-07-31T13:32:41;19.40;99.90
51793;DHT22;37850;53.178;6.376;2023-07-31T13:35:07;19.40;99.90
51793;DHT22;37850;53.178;6.376;2023-07-31T13:37:33;19.40;99.90
51793;DHT22;37850;53.178;6.376;2023-07-31T13:39:59;19.40;99.90
51793;DHT22;37850;53.178;6.376;2023-07-31T13:42:25;19.40;99.90
51793;DHT22;37850;53.178;6.376;2023-07-31T13:44:54;19.50;99.90
51793;DHT22;37850;53.178;6.376;2023-07-31T13:47:24;19.50;99.90
51793;DHT22;37850;53.178;6.376;2023-07-31T13:49:50;19.60;99.90
51793;DHT22;37850;53.178;6.376;2023-07-31T13:52:15;19.60;99.90
51793;DHT22;37850;53.178;6.376;2023-07-31T13:54:41;19.60;99.90
51793;DHT22;37850;53.178;6.376;2023-07-31T13:57:08;19.70;99.90
51793;DHT22;37850;53.178;6.376;2023-07-31T13:59:34;19.70;99.90
51793;DHT22;37850;53.178;6.376;2023-07-31T14:01:59;19.70;99.90
51793;DHT22;37850;53.178;6.376;2023-07-31T14:04:25;19.70;99.90
51793;DHT22;37850;53.178;6.376;2023-07-31T14:06:51;19.80;99.90
51793;DHT22;37850;53.178;6.376;2023-07-31T14:09:17;19.80;99.90
51793;DHT22;37850;53.178;6.376;2023-07-31T14:11:43;19.80;99.90
51793;DHT22;37850;53.178;6.376;2023-07-31T14:14:12;19.80;99.90
51793;DHT22;37850;53.178;6.376;2023-07-31T14:16:39;19.70;99.90
51793;DHT22;37850;53.178;6.376;2023-07-31T14:19:05;19.70;99.90
51793;DHT22;37850;53.178;6.376;2023-07-31T14:21:30;19.70;99.90
51793;DHT22;37850;53.178;6.376;2023-07-31T14:23:56;19.70;99.90
51793;DHT22;37850;53.178;6.376;2023-07-31T14:26:22;19.70;99.90
51793;DHT22;37850;53.178;6.376;2023-07-31T14:28:48;19.70;99.90
51793;DHT22;37850;53.178;6.376;2023-07-31T14:31:13;19.70;99.90
51793;DHT22;37850;53.178;6.376;2023-07-31T14:33:39;19.70;99.90
51793;DHT22;37850;53.178;6.376;2023-07-31T14:36:05;19.70;99.90
51793;DHT22;37850;53.178;6.376;2023-07-31T14:38:31;19.70;99.90
51793;DHT22;37850;53.178;6.376;2023-07-31T14:40:56;19.70;99.90
51793;DHT22;37850;53.178;6.376;2023-07-31T14:43:22;19.70;99.90
51793;DHT22;37850;53.178;6.376;2023-07-31T14:45:48;19.70;99.90
51793;DHT22;37850;53.178;6.376;2023-07-31T14:48:15;19.70;99.90
51793;DHT22;37850;53.178;6.376;2023-07-31T14:50:40;19.70;99.90
51793;DHT22;37850;53.178;6.376;2023-07-31T14:53:06;19.70;99.90
51793;DHT22;37850;53.178;6.376;2023-07-31T14:55:32;19.60;99.90
51793;DHT22;37850;53.178;6.376;2023-07-31T14:57:57;19.60;99.90
51793;DHT22;37850;53.178;6.376;2023-07-31T15:00:23;19.60;99.90
51793;DHT22;37850;53.178;6.376;2023-07-31T15:02:50;19.60;99.90
51793;DHT22;37850;53.178;6.376;2023-07-31T15:05:15;19.60;99.90
51793;DHT22;37850;53.178;6.376;2023-07-31T15:07:41;19.60;99.90
51793;DHT22;37850;53.178;6.376;2023-07-31T15:10:07;19.60;99.90
51793;DHT22;37850;53.178;6.376;2023-07-31T15:12:33;19.50;99.90
51793;DHT22;37850;53.178;6.376;2023-07-31T15:14:59;19.50;99.90
51793;DHT22;37850;53.178;6.376;2023-07-31T15:17:25;19.50;99.90
51793;DHT22;37850;53.178;6.376;2023-07-31T15:19:50;19.50;99.90
51793;DHT22;37850;53.178;6.376;2023-07-31T15:22:16;19.50;99.90
51793;DHT22;37850;53.178;6.376;2023-07-31T15:24:42;19.50;99.90
51793;DHT22;37850;53.178;6.376;2023-07-31T15:27:08;19.50;99.90
51793;DHT22;37850;53.178;6.376;2023-07-31T15:29:34;19.50;99.90
51793;DHT22;37850;53.178;6.376;2023-07-31T15:32:04;19.50;99.90
51793;DHT22;37850;53.178;6.376;2023-07-31T15:34:33;19.50;99.90
51793;DHT22;37850;53.178;6.376;2023-07-31T15:36:59;19.50;99.90
51793;DHT22;37850;53.178;6.376;2023-07-31T15:39:25;19.40;99.90